sensor_id;sensor_type;location;lat;lon;timestamp;temperature;humidity
11597;DHT22;5854;48.072;16.286;2022-08-01T00:01:35;22.60;51.70
11597;DHT22;5854;48.072;16.286;2022-08-01T00:04:03;22.80;51.30
11597;DHT22;5854;48.072;16.286;2022-08-01T00:06:32;22.80;51.20
11597;DHT22;5854;48.072;16.286;2022-08-01T00:08:59;22.80;49.80
11597;DHT22;5854;48.072;16.286;2022-08-01T00:11:26;22.70;51.30
11597;DHT22;5854;48.072;16.286;2022-08-01T00:13:53;22.80;51.70
11597;DHT22;5854;48.072;16.286;2022-08-01T00:16:21;22.80;50.30
11597;DHT22;5854;48.072;16.286;2022-08-01T00:18:49;22.70;51.60
11597;DHT22;5854;48.072;16.286;2022-08-01T00:21:16;22.80;51.00
11597;DHT22;5854;48.072;16.286;2022-08-01T00:23:45;22.70;51.00
11597;DHT22;5854;48.072;16.286;2022-08-01T00:26:12;22.80;51.20
11597;DHT22;5854;48.072;16.286;2022-08-01T00:28:39;22.70;51.00
11597;DHT22;5854;48.072;16.286;2022-08-01T00:31:06;22.60;51.70
11597;DHT22;5854;48.072;16.286;2022-08-01T00:33:34;22.50;51.60
11597;DHT22;5854;48.072;16.286;2022-08-01T00:36:01;22.50;51.60
11597;DHT22;5854;48.072;16.286;2022-08-01T00:38:28;22.40;52.10
11597;DHT22;5854;48.072;16.286;2022-08-01T00:40:57;22.30;52.10
11597;DHT22;5854;48.072;16.286;2022-08-01T00:43:24;22.30;51.90
11597;DHT22;5854;48.072;16.286;2022-08-01T00:45:51;22.20;52.90
11597;DHT22;5854;48.072;16.286;2022-08-01T00:48:18;22.30;52.90
11597;DHT22;5854;48.072;16.286;2022-08-01T00:50:45;22.40;51.10
11597;DHT22;5854;48.072;16.286;2022-08-01T00:53:13;22.40;51.90
11597;DHT22;5854;48.072;16.286;2022-08-01T00:55:40;22.40;51.20
11597;DHT22;5854;48.072;16.286;2022-08-01T00:58:09;22.40;52.10
11597;DHT22;5854;48.072;16.286;2022-08-01T01:00:36;22.30;51.90
11597;DHT22;5854;48.072;16.286;2022-08-01T01:03:03;22.30;52.00
11597;DHT22;5854;48.072;16.286;2022-08-01T01:05:35;22.40;51.80
11597;DHT22;5854;48.072;16.286;2022-08-01T01:08:12;22.40;51.80
11597;DHT22;5854;48.072;16.286;2022-08-01T01:10:51;22.50;51.40
11597;DHT22;5854;48.072;16.286;2022-08-01T01:13:31;22.60;51.90
11597;DHT22;5854;48.072;16.286;2022-08-01T01:16:06;22.60;49.90
11597;DHT22;5854;48.072;16.286;2022-08-01T01:18:40;22.50;51.30
11597;DHT22;5854;48.072;16.286;2022-08-01T01:21:30;22.60;51.20
11597;DHT22;5854;48.072;16.286;2022-08-01T01:24:13;22.60;51.30
11597;DHT22;5854;48.072;16.286;2022-08-01T01:26:51;22.60;51.60
11597;DHT22;5854;48.072;16.286;2022-08-01T01:29:26;22.60;49.70
11597;DHT22;5854;48.072;16.286;2022-08-01T01:31:59;22.50;52.10
11597;DHT22;5854;48.072;16.286;2022-08-01T01:34:31;22.60;51.50
11597;DHT22;5854;48.072;16.286;2022-08-01T01:37:02;22.50;50.60
11597;DHT22;5854;48.072;16.286;2022-08-01T01:39:30;22.50;51.20
11597;DHT22;5854;48.072;16.286;2022-08-01T01:41:59;22.40;51.80
11597;DHT22;5854;48.072;16.286;2022-08-01T01:44:28;22.50;50.80
11597;DHT22;5854;48.072;16.286;2022-08-01T01:46:57;22.50;51.00
11597;DHT22;5854;48.072;16.286;2022-08-01T01:49:27;22.50;51.60
11597;DHT22;5854;48.072;16.286;2022-08-01T01:51:57;22.50;51.20
11597;DHT22;5854;48.072;16.286;2022-08-01T01:54:28;22.60;51.60
11597;DHT22;5854;48.072;16.286;2022-08-01T01:57:00;22.60;49.90
11597;DHT22;5854;48.072;16.286;2022-08-01T01:59:33;22.60;49.30
11597;DHT22;5854;48.072;16.286;2022-08-01T02:02:04;22.60;50.50
11597;DHT22;5854;48.072;16.286;2022-08-01T02:04:33;22.50;49.60
11597;DHT22;5854;48.072;16.286;2022-08-01T02:07:03;22.60;50.00
11597;DHT22;5854;48.072;16.286;2022-08-01T02:09:31;22.60;49.20
11597;DHT22;5854;48.072;16.286;2022-08-01T02:11:59;22.60;49.80
11597;DHT22;5854;48.072;16.286;2022-08-01T02:14:31;22.60;49.10
11597;DHT22;5854;48.072;16.286;2022-08-01T02:17:00;22.60;49.50
11597;DHT22;5854;48.072;16.286;2022-08-01T02:19:29;22.60;50.00
11597;DHT22;5854;48.072;16.286;2022-08-01T02:21:59;22.60;50.50
11597;DHT22;5854;48.072;16.286;2022-08-01T02:24:32;22.60;50.50
11597;DHT22;5854;48.072;16.286;2022-08-01T02:27:06;22.70;50.20
11597;DHT22;5854;48.072;16.286;2022-08-01T02:29:40;22.70;50.40
11597;DHT22;5854;48.072;16.286;2022-08-01T02:32:14;22.60;48.80
11597;DHT22;5854;48.072;16.286;2022-08-01T02:34:46;22.70;49.20
11597;DHT22;5854;48.072;16.286;2022-08-01T02:37:16;22.70;48.80
11597;DHT22;5854;48.072;16.286;2022-08-01T02:39:46;22.70;49.10
11597;DHT22;5854;48.072;16.286;2022-08-01T02:42:16;22.70;49.00
11597;DHT22;5854;48.072;16.286;2022-08-01T02:44:47;22.70;47.90
11597;DHT22;5854;48.072;16.286;2022-08-01T02:47:16;22.70;49.60
11597;DHT22;5854;48.072;16.286;2022-08-01T02:49:47;22.70;49.80
11597;DHT22;5854;48.072;16.286;2022-08-01T02:52:16;22.60;48.20
11597;DHT22;5854;48.072;16.286;2022-08-01T02:54:48;22.70;50.10
11597;DHT22;5854;48.072;16.286;2022-08-01T02:57:17;22.70;48.00
11597;DHT22;5854;48.072;16.286;2022-08-01T02:59:47;22.70;48.60
11597;DHT22;5854;48.072;16.286;2022-08-01T03:02:15;22.70;50.10
11597;DHT22;5854;48.072;16.286;2022-08-01T03:04:44;22.70;50.10
11597;DHT22;5854;48.072;16.286;2022-08-01T03:07:12;22.70;49.50
11597;DHT22;5854;48.072;16.286;2022-08-01T03:09:43;22.70;49.10
11597;DHT22;5854;48.072;16.286;2022-08-01T03:12:15;22.70;48.80
11597;DHT22;5854;48.072;16.286;2022-08-01T03:14:47;22.70;48.30
11597;DHT22;5854;48.072;16.286;2022-08-01T03:17:15;22.70;48.70
11597;DHT22;5854;48.072;16.286;2022-08-01T03:19:45;22.70;47.00
11597;DHT22;5854;48.072;16.286;2022-08-01T03:22:13;22.60;48.80
11597;DHT22;5854;48.072;16.286;2022-08-01T03:24:42;22.60;47.90
11597;DHT22;5854;48.072;16.286;2022-08-01T03:27:12;22.60;48.30
11597;DHT22;5854;48.072;16.286;2022-08-01T03:29:41;22.50;50.30
11597;DHT22;5854;48.072;16.286;2022-08-01T03:32:12;22.50;50.60
11597;DHT22;5854;48.072;16.286;2022-08-01T03:34:40;22.60;49.60
11597;DHT22;5854;48.072;16.286;2022-08-01T03:37:11;22.50;49.60
11597;DHT22;5854;48.072;16.286;2022-08-01T03:39:45;22.40;48.60
11597;DHT22;5854;48.072;16.286;2022-08-01T03:42:16;22.40;49.20
11597;DHT22;5854;48.072;16.286;2022-08-01T03:44:50;22.40;49.80
11597;DHT22;5854;48.072;16.286;2022-08-01T03:47:29;22.30;49.00
11597;DHT22;5854;48.072;16.286;2022-08-01T03:49:58;22.40;50.50
11597;DHT22;5854;48.072;16.286;2022-08-01T03:52:27;22.30;50.60
11597;DHT22;5854;48.072;16.286;2022-08-01T03:54:57;22.40;49.20
11597;DHT22;5854;48.072;16.286;2022-08-01T03:57:28;22.30;50.10
11597;DHT22;5854;48.072;16.286;2022-08-01T03:59:57;22.30;51.20
11597;DHT22;5854;48.072;16.286;2022-08-01T04:02:27;22.40;50.50
11597;DHT22;5854;48.072;16.286;2022-08-01T04:04:55;22.40;50.30
11597;DHT22;5854;48.072;16.286;2022-08-01T04:07:23;22.50;51.10
11597;DHT22;5854;48.072;16.286;2022-08-01T04:09:51;22.50;50.90
11597;DHT22;5854;48.072;16.286;2022-08-01T04:12:19;22.50;51.20
11597;DHT22;5854;48.072;16.286;2022-08-01T04:14:47;22.50;51.40
11597;DHT22;5854;48.072;16.286;2022-08-01T04:17:14;22.50;51.30
11597;DHT22;5854;48.072;16.286;2022-08-01T04:19:44;22.50;50.70
11597;DHT22;5854;48.072;16.286;2022-08-01T04:22:13;22.40;51.70
11597;DHT22;5854;48.072;16.286;2022-08-01T04:24:44;22.40;51.70
11597;DHT22;5854;48.072;16.286;2022-08-01T04:27:19;22.40;52.50
11597;DHT22;5854;48.072;16.286;2022-08-01T04:29:49;22.30;52.40
11597;DHT22;5854;48.072;16.286;2022-08-01T04:32:19;22.30;53.00
11597;DHT22;5854;48.072;16.286;2022-08-01T04:34:49;22.30;53.50
11597;DHT22;5854;48.072;16.286;2022-08-01T04:37:18;22.20;53.20
11597;DHT22;5854;48.072;16.286;2022-08-01T04:39:46;22.30;53.10
11597;DHT22;5854;48.072;16.286;2022-08-01T04:42:14;22.20;54.00
11597;DHT22;5854;48.072;16.286;2022-08-01T04:44:42;22.20;52.90
11597;DHT22;5854;48.072;16.286;2022-08-01T04:47:09;22.30;53.80
11597;DHT22;5854;48.072;16.286;2022-08-01T04:49:37;22.20;55.20
11597;DHT22;5854;48.072;16.286;2022-08-01T04:52:06;22.20;55.40
11597;DHT22;5854;48.072;16.286;2022-08-01T04:54:34;22.10;55.60
11597;DHT22;5854;48.072;16.286;2022-08-01T04:57:03;22.20;54.00
11597;DHT22;5854;48.072;16.286;2022-08-01T04:59:32;22.30;54.00
11597;DHT22;5854;48.072;16.286;2022-08-01T05:02:06;22.40;54.00
11597;DHT22;5854;48.072;16.286;2022-08-01T05:04:34;22.40;55.50
11597;DHT22;5854;48.072;16.286;2022-08-01T05:07:01;22.40;55.90
11597;DHT22;5854;48.072;16.286;2022-08-01T05:09:30;22.40;54.60
11597;DHT22;5854;48.072;16.286;2022-08-01T05:11:57;22.50;57.60
11597;DHT22;5854;48.072;16.286;2022-08-01T05:14:26;22.50;55.40
11597;DHT22;5854;48.072;16.286;2022-08-01T05:16:53;22.50;55.90
11597;DHT22;5854;48.072;16.286;2022-08-01T05:19:20;22.50;55.00
11597;DHT22;5854;48.072;16.286;2022-08-01T05:21:47;22.50;54.90
11597;DHT22;5854;48.072;16.286;2022-08-01T05:24:15;22.50;56.80
11597;DHT22;5854;48.072;16.286;2022-08-01T05:26:43;22.60;56.00
11597;DHT22;5854;48.072;16.286;2022-08-01T05:29:10;22.60;56.70
11597;DHT22;5854;48.072;16.286;2022-08-01T05:31:38;22.60;55.00
11597;DHT22;5854;48.072;16.286;2022-08-01T05:34:05;22.60;54.10
11597;DHT22;5854;48.072;16.286;2022-08-01T05:36:32;22.60;53.10
11597;DHT22;5854;48.072;16.286;2022-08-01T05:38:59;22.60;54.20
11597;DHT22;5854;48.072;16.286;2022-08-01T05:41:26;22.60;52.80
11597;DHT22;5854;48.072;16.286;2022-08-01T05:43:54;22.70;53.30
11597;DHT22;5854;48.072;16.286;2022-08-01T05:46:22;22.80;55.30
11597;DHT22;5854;48.072;16.286;2022-08-01T05:48:49;22.80;53.80
11597;DHT22;5854;48.072;16.286;2022-08-01T05:51:16;22.90;55.70
11597;DHT22;5854;48.072;16.286;2022-08-01T05:53:43;23.00;53.50
11597;DHT22;5854;48.072;16.286;2022-08-01T05:56:10;23.00;53.60
11597;DHT22;5854;48.072;16.286;2022-08-01T05:58:37;23.10;55.70
11597;DHT22;5854;48.072;16.286;2022-08-01T06:01:06;23.10;52.40
11597;DHT22;5854;48.072;16.286;2022-08-01T06:03:33;23.10;53.90
11597;DHT22;5854;48.072;16.286;2022-08-01T06:06:00;23.20;51.90
11597;DHT22;5854;48.072;16.286;2022-08-01T06:08:27;23.20;51.90
11597;DHT22;5854;48.072;16.286;2022-08-01T06:10:55;23.20;51.30
11597;DHT22;5854;48.072;16.286;2022-08-01T06:13:22;23.20;51.00
11597;DHT22;5854;48.072;16.286;2022-08-01T06:15:49;23.20;52.10
11597;DHT22;5854;48.072;16.286;2022-08-01T06:18:18;23.20;51.90
11597;DHT22;5854;48.072;16.286;2022-08-01T06:20:46;23.20;52.50
11597;DHT22;5854;48.072;16.286;2022-08-01T06:23:13;23.30;52.80
11597;DHT22;5854;48.072;16.286;2022-08-01T06:25:41;23.50;53.40
11597;DHT22;5854;48.072;16.286;2022-08-01T06:28:09;23.70;50.80
11597;DHT22;5854;48.072;16.286;2022-08-01T06:30:36;23.90;50.20
11597;DHT22;5854;48.072;16.286;2022-08-01T06:33:03;24.30;51.00
11597;DHT22;5854;48.072;16.286;2022-08-01T06:35:32;24.50;49.90
11597;DHT22;5854;48.072;16.286;2022-08-01T06:37:59;25.00;48.50
11597;DHT22;5854;48.072;16.286;2022-08-01T06:40:26;25.10;43.40
11597;DHT22;5854;48.072;16.286;2022-08-01T06:42:53;25.60;43.50
11597;DHT22;5854;48.072;16.286;2022-08-01T06:45:21;26.20;43.20
11597;DHT22;5854;48.072;16.286;2022-08-01T06:47:50;27.30;40.70
11597;DHT22;5854;48.072;16.286;2022-08-01T06:50:17;27.90;37.30
11597;DHT22;5854;48.072;16.286;2022-08-01T06:52:46;28.20;37.80
11597;DHT22;5854;48.072;16.286;2022-08-01T06:55:13;28.60;37.30
11597;DHT22;5854;48.072;16.286;2022-08-01T06:57:48;28.20;36.80
11597;DHT22;5854;48.072;16.286;2022-08-01T07:00:16;27.60;37.00
11597;DHT22;5854;48.072;16.286;2022-08-01T07:02:47;27.40;35.80
11597;DHT22;5854;48.072;16.286;2022-08-01T07:05:15;27.60;36.30
11597;DHT22;5854;48.072;16.286;2022-08-01T07:07:42;27.30;37.80
11597;DHT22;5854;48.072;16.286;2022-08-01T07:10:11;26.90;38.10
11597;DHT22;5854;48.072;16.286;2022-08-01T07:12:38;26.70;39.20
11597;DHT22;5854;48.072;16.286;2022-08-01T07:15:07;26.40;39.40
11597;DHT22;5854;48.072;16.286;2022-08-01T07:17:37;26.30;39.50
11597;DHT22;5854;48.072;16.286;2022-08-01T07:20:07;26.00;41.10
11597;DHT22;5854;48.072;16.286;2022-08-01T07:22:34;26.00;41.00
11597;DHT22;5854;48.072;16.286;2022-08-01T07:25:02;25.80;40.60
11597;DHT22;5854;48.072;16.286;2022-08-01T07:27:31;25.60;41.00
11597;DHT22;5854;48.072;16.286;2022-08-01T07:29:59;25.40;41.60
11597;DHT22;5854;48.072;16.286;2022-08-01T07:32:26;25.80;41.00
11597;DHT22;5854;48.072;16.286;2022-08-01T07:34:54;25.90;39.70
11597;DHT22;5854;48.072;16.286;2022-08-01T07:37:22;25.70;41.10
11597;DHT22;5854;48.072;16.286;2022-08-01T07:39:49;25.50;41.60
11597;DHT22;5854;48.072;16.286;2022-08-01T07:42:16;25.40;42.30
11597;DHT22;5854;48.072;16.286;2022-08-01T07:44:45;25.20;41.40
11597;DHT22;5854;48.072;16.286;2022-08-01T07:47:12;25.10;43.00
11597;DHT22;5854;48.072;16.286;2022-08-01T07:49:39;24.90;42.00
11597;DHT22;5854;48.072;16.286;2022-08-01T07:52:06;25.00;42.60
11597;DHT22;5854;48.072;16.286;2022-08-01T07:54:34;25.10;43.00
11597;DHT22;5854;48.072;16.286;2022-08-01T07:57:01;25.00;43.90
11597;DHT22;5854;48.072;16.286;2022-08-01T07:59:29;25.00;44.40
11597;DHT22;5854;48.072;16.286;2022-08-01T08:01:58;24.90;43.80
11597;DHT22;5854;48.072;16.286;2022-08-01T08:04:26;24.90;43.60
11597;DHT22;5854;48.072;16.286;2022-08-01T08:06:53;24.90;43.00
11597;DHT22;5854;48.072;16.286;2022-08-01T08:09:20;24.80;44.20
11597;DHT22;5854;48.072;16.286;2022-08-01T08:11:48;24.80;43.50
11597;DHT22;5854;48.072;16.286;2022-08-01T08:14:16;24.80;44.80
11597;DHT22;5854;48.072;16.286;2022-08-01T08:16:44;24.90;44.60
11597;DHT22;5854;48.072;16.286;2022-08-01T08:19:13;25.10;44.50
11597;DHT22;5854;48.072;16.286;2022-08-01T08:21:40;25.20;44.60
11597;DHT22;5854;48.072;16.286;2022-08-01T08:24:08;25.20;44.10
11597;DHT22;5854;48.072;16.286;2022-08-01T08:26:50;25.30;43.20
11597;DHT22;5854;48.072;16.286;2022-08-01T08:29:21;25.60;43.60
11597;DHT22;5854;48.072;16.286;2022-08-01T08:31:51;25.70;42.90
11597;DHT22;5854;48.072;16.286;2022-08-01T08:34:20;25.60;42.30
11597;DHT22;5854;48.072;16.286;2022-08-01T08:36:47;25.60;43.10
11597;DHT22;5854;48.072;16.286;2022-08-01T08:39:14;25.70;43.20
11597;DHT22;5854;48.072;16.286;2022-08-01T08:41:42;25.60;43.50
11597;DHT22;5854;48.072;16.286;2022-08-01T08:44:10;25.80;43.40
11597;DHT22;5854;48.072;16.286;2022-08-01T08:46:41;26.00;43.20
11597;DHT22;5854;48.072;16.286;2022-08-01T08:49:10;26.50;42.80
11597;DHT22;5854;48.072;16.286;2022-08-01T08:51:41;26.60;41.60
11597;DHT22;5854;48.072;16.286;2022-08-01T08:54:11;26.30;41.70
11597;DHT22;5854;48.072;16.286;2022-08-01T08:56:39;26.20;42.30
11597;DHT22;5854;48.072;16.286;2022-08-01T08:59:07;26.10;42.40
11597;DHT22;5854;48.072;16.286;2022-08-01T09:01:34;26.20;42.40
11597;DHT22;5854;48.072;16.286;2022-08-01T09:04:03;26.00;42.80
11597;DHT22;5854;48.072;16.286;2022-08-01T09:06:30;26.00;43.00
11597;DHT22;5854;48.072;16.286;2022-08-01T09:09:00;26.00;42.80
11597;DHT22;5854;48.072;16.286;2022-08-01T09:11:27;25.80;43.00
11597;DHT22;5854;48.072;16.286;2022-08-01T09:14:15;25.70;43.10
11597;DHT22;5854;48.072;16.286;2022-08-01T09:17:00;25.90;43.00
11597;DHT22;5854;48.072;16.286;2022-08-01T09:19:35;25.70;43.50
11597;DHT22;5854;48.072;16.286;2022-08-01T09:22:05;25.90;43.30
11597;DHT22;5854;48.072;16.286;2022-08-01T09:24:35;26.30;43.80
11597;DHT22;5854;48.072;16.286;2022-08-01T09:27:16;26.60;42.20
11597;DHT22;5854;48.072;16.286;2022-08-01T09:29:43;27.00;41.60
11597;DHT22;5854;48.072;16.286;2022-08-01T09:32:11;27.00;41.00
11597;DHT22;5854;48.072;16.286;2022-08-01T09:34:38;26.90;40.90
11597;DHT22;5854;48.072;16.286;2022-08-01T09:37:06;27.00;40.70
11597;DHT22;5854;48.072;16.286;2022-08-01T09:39:36;27.00;40.90
11597;DHT22;5854;48.072;16.286;2022-08-01T09:42:20;27.00;40.90
11597;DHT22;5854;48.072;16.286;2022-08-01T09:44:48;27.10;41.20
11597;DHT22;5854;48.072;16.286;2022-08-01T09:47:16;27.00;41.00
11597;DHT22;5854;48.072;16.286;2022-08-01T09:49:53;27.00;39.80
11597;DHT22;5854;48.072;16.286;2022-08-01T09:52:22;27.20;40.00
11597;DHT22;5854;48.072;16.286;2022-08-01T09:54:54;26.90;40.70
11597;DHT22;5854;48.072;16.286;2022-08-01T09:57:23;26.90;41.40
11597;DHT22;5854;48.072;16.286;2022-08-01T09:59:52;26.90;41.10
11597;DHT22;5854;48.072;16.286;2022-08-01T10:02:29;27.00;42.20
11597;DHT22;5854;48.072;16.286;2022-08-01T10:04:58;27.30;42.10
11597;DHT22;5854;48.072;16.286;2022-08-01T10:07:26;27.40;40.90
11597;DHT22;5854;48.072;16.286;2022-08-01T10:09:55;27.30;41.10
11597;DHT22;5854;48.072;16.286;2022-08-01T10:12:23;27.40;40.80
11597;DHT22;5854;48.072;16.286;2022-08-01T10:14:50;27.30;40.90
11597;DHT22;5854;48.072;16.286;2022-08-01T10:17:20;27.00;40.90
11597;DHT22;5854;48.072;16.286;2022-08-01T10:19:51;27.30;40.10
11597;DHT22;5854;48.072;16.286;2022-08-01T10:22:23;27.40;39.70
11597;DHT22;5854;48.072;16.286;2022-08-01T10:24:56;27.70;38.70
11597;DHT22;5854;48.072;16.286;2022-08-01T10:27:25;27.60;40.00
11597;DHT22;5854;48.072;16.286;2022-08-01T10:29:56;27.20;40.80
11597;DHT22;5854;48.072;16.286;2022-08-01T10:32:29;27.40;40.70
11597;DHT22;5854;48.072;16.286;2022-08-01T10:34:57;27.40;39.60
11597;DHT22;5854;48.072;16.286;2022-08-01T10:37:25;27.50;40.50
11597;DHT22;5854;48.072;16.286;2022-08-01T10:39:53;27.30;40.70
11597;DHT22;5854;48.072;16.286;2022-08-01T10:42:22;27.50;39.60
11597;DHT22;5854;48.072;16.286;2022-08-01T10:44:51;27.70;38.20
11597;DHT22;5854;48.072;16.286;2022-08-01T10:47:23;27.90;37.60
11597;DHT22;5854;48.072;16.286;2022-08-01T10:49:58;28.30;39.30
11597;DHT22;5854;48.072;16.286;2022-08-01T10:52:30;28.40;37.00
11597;DHT22;5854;48.072;16.286;2022-08-01T10:55:02;28.20;38.50
11597;DHT22;5854;48.072;16.286;2022-08-01T10:57:43;28.10;37.70
11597;DHT22;5854;48.072;16.286;2022-08-01T11:00:15;28.30;38.20
11597;DHT22;5854;48.072;16.286;2022-08-01T11:02:57;28.40;36.60
11597;DHT22;5854;48.072;16.286;2022-08-01T11:05:27;28.20;38.50
11597;DHT22;5854;48.072;16.286;2022-08-01T11:07:59;28.10;38.30
11597;DHT22;5854;48.072;16.286;2022-08-01T11:10:29;28.20;39.60
11597;DHT22;5854;48.072;16.286;2022-08-01T11:13:02;28.30;38.40
11597;DHT22;5854;48.072;16.286;2022-08-01T11:15:33;28.50;38.70
11597;DHT22;5854;48.072;16.286;2022-08-01T11:18:02;28.40;38.40
11597;DHT22;5854;48.072;16.286;2022-08-01T11:20:32;28.30;37.40
11597;DHT22;5854;48.072;16.286;2022-08-01T11:23:23;28.20;38.20
11597;DHT22;5854;48.072;16.286;2022-08-01T11:26:11;28.30;37.70
11597;DHT22;5854;48.072;16.286;2022-08-01T11:28:42;28.30;38.10
11597;DHT22;5854;48.072;16.286;2022-08-01T11:31:39;28.30;36.60
11597;DHT22;5854;48.072;16.286;2022-08-01T11:34:06;28.20;37.20
11597;DHT22;5854;48.072;16.286;2022-08-01T11:36:34;28.20;38.10
11597;DHT22;5854;48.072;16.286;2022-08-01T11:39:15;28.10;38.00
11597;DHT22;5854;48.072;16.286;2022-08-01T11:41:45;28.10;35.00
11597;DHT22;5854;48.072;16.286;2022-08-01T11:44:18;28.00;34.80
11597;DHT22;5854;48.072;16.286;2022-08-01T11:46:57;28.10;33.60
11597;DHT22;5854;48.072;16.286;2022-08-01T11:49:44;28.20;35.90
11597;DHT22;5854;48.072;16.286;2022-08-01T11:52:16;28.20;36.30
11597;DHT22;5854;48.072;16.286;2022-08-01T11:54:47;28.40;36.80
11597;DHT22;5854;48.072;16.286;2022-08-01T11:57:19;28.60;35.10
11597;DHT22;5854;48.072;16.286;2022-08-01T11:59:50;28.80;38.10
11597;DHT22;5854;48.072;16.286;2022-08-01T12:02:20;28.80;36.70
11597;DHT22;5854;48.072;16.286;2022-08-01T12:04:54;28.80;37.30
11597;DHT22;5854;48.072;16.286;2022-08-01T12:07:23;28.60;38.10
11597;DHT22;5854;48.072;16.286;2022-08-01T12:09:59;28.60;39.10
11597;DHT22;5854;48.072;16.286;2022-08-01T12:12:28;28.40;37.50
11597;DHT22;5854;48.072;16.286;2022-08-01T12:14:58;28.40;38.40
11597;DHT22;5854;48.072;16.286;2022-08-01T12:17:33;28.20;37.40
11597;DHT22;5854;48.072;16.286;2022-08-01T12:20:02;28.10;37.70
11597;DHT22;5854;48.072;16.286;2022-08-01T12:22:31;28.30;39.40
11597;DHT22;5854;48.072;16.286;2022-08-01T12:25:05;28.70;37.70
11597;DHT22;5854;48.072;16.286;2022-08-01T12:27:35;29.40;38.50
11597;DHT22;5854;48.072;16.286;2022-08-01T12:30:07;29.50;37.10
11597;DHT22;5854;48.072;16.286;2022-08-01T12:32:36;29.60;34.90
11597;DHT22;5854;48.072;16.286;2022-08-01T12:35:06;29.40;36.90
11597;DHT22;5854;48.072;16.286;2022-08-01T12:37:35;29.70;36.60
11597;DHT22;5854;48.072;16.286;2022-08-01T12:40:10;30.80;35.10
11597;DHT22;5854;48.072;16.286;2022-08-01T12:42:42;32.20;32.90
11597;DHT22;5854;48.072;16.286;2022-08-01T12:45:15;33.50;30.40
11597;DHT22;5854;48.072;16.286;2022-08-01T12:47:43;33.90;28.80
11597;DHT22;5854;48.072;16.286;2022-08-01T12:50:14;33.80;30.30
11597;DHT22;5854;48.072;16.286;2022-08-01T12:52:42;32.40;31.30
11597;DHT22;5854;48.072;16.286;2022-08-01T12:55:12;31.20;34.60
11597;DHT22;5854;48.072;16.286;2022-08-01T12:57:43;30.50;34.00
11597;DHT22;5854;48.072;16.286;2022-08-01T13:00:22;31.00;33.80
11597;DHT22;5854;48.072;16.286;2022-08-01T13:03:01;31.10;34.00
11597;DHT22;5854;48.072;16.286;2022-08-01T13:05:40;31.30;32.80
11597;DHT22;5854;48.072;16.286;2022-08-01T13:08:10;31.00;33.30
11597;DHT22;5854;48.072;16.286;2022-08-01T13:10:38;31.10;33.20
11597;DHT22;5854;48.072;16.286;2022-08-01T13:13:07;31.20;34.40
11597;DHT22;5854;48.072;16.286;2022-08-01T13:15:37;31.20;34.10
11597;DHT22;5854;48.072;16.286;2022-08-01T13:18:25;31.20;34.50
11597;DHT22;5854;48.072;16.286;2022-08-01T13:21:10;32.00;33.70
11597;DHT22;5854;48.072;16.286;2022-08-01T13:23:39;32.60;32.70
11597;DHT22;5854;48.072;16.286;2022-08-01T13:26:07;32.50;31.80
11597;DHT22;5854;48.072;16.286;2022-08-01T13:28:35;32.40;32.60
11597;DHT22;5854;48.072;16.286;2022-08-01T13:31:07;32.10;32.80
11597;DHT22;5854;48.072;16.286;2022-08-01T13:33:41;31.80;33.00
11597;DHT22;5854;48.072;16.286;2022-08-01T13:36:10;32.30;32.50
11597;DHT22;5854;48.072;16.286;2022-08-01T13:38:38;32.70;32.50
11597;DHT22;5854;48.072;16.286;2022-08-01T13:41:23;32.70;31.60
11597;DHT22;5854;48.072;16.286;2022-08-01T13:43:50;32.20;32.00
11597;DHT22;5854;48.072;16.286;2022-08-01T13:46:18;32.10;31.70
11597;DHT22;5854;48.072;16.286;2022-08-01T13:48:46;31.30;34.50
11597;DHT22;5854;48.072;16.286;2022-08-01T13:51:13;30.50;35.10
11597;DHT22;5854;48.072;16.286;2022-08-01T13:53:40;29.70;35.60
11597;DHT22;5854;48.072;16.286;2022-08-01T13:56:07;29.40;38.10
11597;DHT22;5854;48.072;16.286;2022-08-01T13:58:34;29.30;37.90
11597;DHT22;5854;48.072;16.286;2022-08-01T14:01:01;29.20;39.10
11597;DHT22;5854;48.072;16.286;2022-08-01T14:03:30;29.10;36.20
11597;DHT22;5854;48.072;16.286;2022-08-01T14:05:57;29.20;37.90
11597;DHT22;5854;48.072;16.286;2022-08-01T14:08:24;29.30;38.20
11597;DHT22;5854;48.072;16.286;2022-08-01T14:10:51;29.40;36.10
11597;DHT22;5854;48.072;16.286;2022-08-01T14:13:21;29.40;35.60
11597;DHT22;5854;48.072;16.286;2022-08-01T14:15:48;29.50;37.10
11597;DHT22;5854;48.072;16.286;2022-08-01T14:18:15;29.40;37.40
11597;DHT22;5854;48.072;16.286;2022-08-01T14:20:44;29.50;37.40
11597;DHT22;5854;48.072;16.286;2022-08-01T14:23:11;29.40;35.00
11597;DHT22;5854;48.072;16.286;2022-08-01T14:25:40;29.40;37.80
11597;DHT22;5854;48.072;16.286;2022-08-01T14:28:07;29.40;35.40
11597;DHT22;5854;48.072;16.286;2022-08-01T14:30:34;29.60;35.90
11597;DHT22;5854;48.072;16.286;2022-08-01T14:33:02;29.80;36.10
11597;DHT22;5854;48.072;16.286;2022-08-01T14:35:29;29.80;37.50
11597;DHT22;5854;48.072;16.286;2022-08-01T14:37:58;29.90;35.30
11597;DHT22;5854;48.072;16.286;2022-08-01T14:40:25;29.90;36.80
11597;DHT22;5854;48.072;16.286;2022-08-01T14:42:52;29.90;36.90
11597;DHT22;5854;48.072;16.286;2022-08-01T14:45:20;29.80;35.60
11597;DHT22;5854;48.072;16.286;2022-08-01T14:47:47;29.70;35.90
11597;DHT22;5854;48.072;16.286;2022-08-01T14:50:15;29.70;36.50
11597;DHT22;5854;48.072;16.286;2022-08-01T14:52:42;29.70;37.30
11597;DHT22;5854;48.072;16.286;2022-08-01T14:55:12;29.70;37.80
11597;DHT22;5854;48.072;16.286;2022-08-01T14:57:40;29.70;36.70
11597;DHT22;5854;48.072;16.286;2022-08-01T15:00:09;29.70;36.90
11597;DHT22;5854;48.072;16.286;2022-08-01T15:02:38;29.60;37.30
11597;DHT22;5854;48.072;16.286;2022-08-01T15:05:06;29.70;35.30
11597;DHT22;5854;48.072;16.286;2022-08-01T15:07:34;29.70;38.30
11597;DHT22;5854;48.072;16.286;2022-08-01T15:10:02;29.90;36.60
11597;DHT22;5854;48.072;16.286;2022-08-01T15:12:31;29.90;37.30
11597;DHT22;5854;48.072;16.286;2022-08-01T15:14:58;29.90;36.60
11597;DHT22;5854;48.072;16.286;2022-08-01T15:17:26;30.10;37.90
11597;DHT22;5854;48.072;16.286;2022-08-01T15:19:56;30.00;36.50
11597;DHT22;5854;48.072;16.286;2022-08-01T15:22:25;30.00;36.10
11597;DHT22;5854;48.072;16.286;2022-08-01T15:24:54;30.00;36.80
11597;DHT22;5854;48.072;16.286;2022-08-01T15:27:21;30.10;37.60
11597;DHT22;5854;48.072;16.286;2022-08-01T15:29:50;30.10;36.20
11597;DHT22;5854;48.072;16.286;2022-08-01T15:32:18;30.10;34.90
11597;DHT22;5854;48.072;16.286;2022-08-01T15:34:45;30.00;36.30
11597;DHT22;5854;48.072;16.286;2022-08-01T15:37:12;30.00;38.30
11597;DHT22;5854;48.072;16.286;2022-08-01T15:39:40;30.10;36.70
11597;DHT22;5854;48.072;16.286;2022-08-01T15:42:10;30.10;38.60
11597;DHT22;5854;48.072;16.286;2022-08-01T15:44:38;29.90;36.40
11597;DHT22;5854;48.072;16.286;2022-08-01T15:47:07;29.80;35.80